createdAt,value
2019-03-23T00:01:01.732Z,10.70
2019-03-23T00:03:29.731Z,10.70
2019-03-23T00:05:57.776Z,10.80
2019-03-23T00:08:25.776Z,10.90
2019-03-23T00:10:53.664Z,10.80
2019-03-23T00:13:21.651Z,10.80
2019-03-23T00:15:49.671Z,10.70
2019-03-23T00:18:17.665Z,10.60
2019-03-23T00:20:45.564Z,10.60
2019-03-23T00:23:13.588Z,10.60
2019-03-23T00:25:41.569Z,10.60
2019-03-23T00:28:09.472Z,10.70
2019-03-23T00:30:37.528Z,10.70
2019-03-23T00:33:05.472Z,10.70
2019-03-23T00:35:33.530Z,10.80
2019-03-23T00:38:01.571Z,10.80
2019-03-23T00:40:29.572Z,10.90
2019-03-23T00:42:57.954Z,11.00
2019-03-23T00:45:25.967Z,11.00
2019-03-23T00:47:54.283Z,11.00
2019-03-23T00:50:22.256Z,11.10
2019-03-23T00:52:50.150Z,11.10
2019-03-23T00:55:18.117Z,11.10
2019-03-23T00:57:46.011Z,11.20
2019-03-23T01:00:14.448Z,11.30
2019-03-23T01:02:42.503Z,11.20
2019-03-23T01:05:10.845Z,11.20
2019-03-23T01:07:38.864Z,11.30
2019-03-23T01:10:07.684Z,11.40
2019-03-23T01:12:36.067Z,11.40
2019-03-23T01:15:08.284Z,11.40
2019-03-23T01:17:36.300Z,11.40
2019-03-23T01:20:05.694Z,11.40
2019-03-23T01:22:36.258Z,11.40
2019-03-23T01:25:05.310Z,11.40
2019-03-23T01:27:33.273Z,11.40
2019-03-23T01:30:01.497Z,11.40
2019-03-23T01:32:29.513Z,11.30
2019-03-23T01:34:57.504Z,11.40
2019-03-23T01:37:25.404Z,11.40
2019-03-23T01:39:53.402Z,11.40
2019-03-23T01:42:21.436Z,11.30
2019-03-23T01:44:49.525Z,11.30
2019-03-23T01:47:17.523Z,11.30
2019-03-23T01:49:45.423Z,11.40
2019-03-23T01:52:13.415Z,11.40
2019-03-23T01:54:41.706Z,11.30
2019-03-23T01:57:09.688Z,11.40
2019-03-23T01:59:37.716Z,11.40
2019-03-23T02:02:05.597Z,11.30
2019-03-23T02:04:33.521Z,11.30
2019-03-23T02:07:01.450Z,11.20
2019-03-23T02:09:29.447Z,11.30
2019-03-23T02:11:57.387Z,11.20
2019-03-23T02:14:25.388Z,11.20
2019-03-23T02:16:53.388Z,11.20
2019-03-23T02:19:21.370Z,11.20
2019-03-23T02:21:49.308Z,11.10
2019-03-23T02:24:17.313Z,11.10
2019-03-23T02:26:45.224Z,11.10
2019-03-23T02:29:13.222Z,11.20
2019-03-23T02:31:41.132Z,11.20
2019-03-23T02:34:09.025Z,11.20
2019-03-23T02:36:37.072Z,11.20
2019-03-23T02:39:06.117Z,11.10
2019-03-23T02:41:34.011Z,11.10
2019-03-23T02:44:01.917Z,11.00
2019-03-23T02:46:29.970Z,11.00
2019-03-23T02:48:57.959Z,11.10
2019-03-23T02:51:25.962Z,11.00
2019-03-23T02:53:53.961Z,11.10
2019-03-23T02:56:21.827Z,11.00
2019-03-23T02:58:50.548Z,11.00
2019-03-23T03:01:18.548Z,11.00
2019-03-23T03:03:46.543Z,11.00
2019-03-23T03:06:14.527Z,11.10
2019-03-23T03:08:42.525Z,11.10
2019-03-23T03:11:10.407Z,11.10
2019-03-23T03:13:38.426Z,11.10
2019-03-23T03:16:06.333Z,11.10
2019-03-23T03:18:34.343Z,11.00
2019-03-23T03:21:02.270Z,11.00
2019-03-23T03:23:30.268Z,11.00
2019-03-23T03:25:58.252Z,11.00
2019-03-23T03:28:26.190Z,11.00
2019-03-23T03:30:54.269Z,11.00
2019-03-23T03:33:22.205Z,10.90
2019-03-23T03:35:50.208Z,10.90
2019-03-23T03:38:18.830Z,10.80
2019-03-23T03:40:46.796Z,10.80
2019-03-23T03:43:14.785Z,10.80
2019-03-23T03:45:45.310Z,10.90
2019-03-23T03:48:13.310Z,10.90
2019-03-23T03:50:41.354Z,10.90
2019-03-23T03:53:09.264Z,10.80
2019-03-23T03:55:37.230Z,10.80
2019-03-23T03:58:05.294Z,10.80
2019-03-23T04:00:33.339Z,10.80
2019-03-23T04:03:01.314Z,10.80
2019-03-23T04:05:29.340Z,10.80
2019-03-23T04:08:10.584Z,10.80
2019-03-23T04:10:27.102Z,10.80
2019-03-23T04:12:55.089Z,10.80
2019-03-23T04:15:23.089Z,10.90
2019-03-23T04:17:50.997Z,10.90
2019-03-23T04:20:19.013Z,10.80
2019-03-23T04:22:46.963Z,10.80
2019-03-23T04:25:14.907Z,10.70
2019-03-23T04:27:42.847Z,10.70
2019-03-23T04:30:10.965Z,10.80
2019-03-23T04:32:39.045Z,10.80
2019-03-23T04:35:07.467Z,10.80
2019-03-23T04:37:35.437Z,10.80
2019-03-23T04:40:04.693Z,10.80
2019-03-23T04:42:32.693Z,10.70
2019-03-23T04:45:00.655Z,10.70
2019-03-23T04:47:28.557Z,10.70
2019-03-23T04:49:56.633Z,10.80
2019-03-23T04:52:24.540Z,10.80
2019-03-23T04:54:52.590Z,10.80
2019-03-23T04:57:20.643Z,10.80
2019-03-23T04:59:48.653Z,10.80
2019-03-23T05:02:16.646Z,10.80
2019-03-23T05:04:44.721Z,10.80
2019-03-23T05:07:12.762Z,10.80
2019-03-23T05:09:40.799Z,10.90
2019-03-23T05:12:08.770Z,10.90
2019-03-23T05:14:36.763Z,10.90
2019-03-23T05:17:04.753Z,10.90
2019-03-23T05:19:32.652Z,10.90
2019-03-23T05:22:00.547Z,11.00
2019-03-23T05:24:28.422Z,11.10
2019-03-23T05:26:56.358Z,11.10
2019-03-23T05:29:24.275Z,11.00
2019-03-23T05:31:52.274Z,11.00
2019-03-23T05:34:20.244Z,11.00
2019-03-23T05:36:48.291Z,11.00
2019-03-23T05:39:16.282Z,11.00
2019-03-23T05:41:44.202Z,11.00
2019-03-23T05:44:12.196Z,10.90
2019-03-23T05:46:40.277Z,10.90
2019-03-23T05:49:08.195Z,10.90
2019-03-23T05:51:36.222Z,10.90
2019-03-23T05:54:04.197Z,10.90
2019-03-23T05:56:32.191Z,10.90
2019-03-23T05:59:00.185Z,10.90
2019-03-23T06:01:28.102Z,11.00
2019-03-23T06:03:55.998Z,11.10
2019-03-23T06:06:23.903Z,11.10
2019-03-23T06:08:55.339Z,11.20
2019-03-23T06:11:23.051Z,11.20
2019-03-23T06:13:51.244Z,11.20
2019-03-23T06:16:20.148Z,11.20
2019-03-23T06:18:48.208Z,11.30
2019-03-23T06:21:16.201Z,11.30
2019-03-23T06:23:44.229Z,11.20
2019-03-23T06:26:12.373Z,11.20
2019-03-23T06:28:40.869Z,11.30
2019-03-23T06:31:08.905Z,11.20
2019-03-23T06:33:36.951Z,11.20
2019-03-23T06:36:05.007Z,11.20
2019-03-23T06:38:32.992Z,11.20
2019-03-23T06:41:01.020Z,11.30
2019-03-23T06:43:29.343Z,11.30
2019-03-23T06:45:57.474Z,11.40
2019-03-23T06:48:25.409Z,11.40
2019-03-23T06:50:53.415Z,11.50
2019-03-23T06:53:22.250Z,11.50
2019-03-23T06:55:50.360Z,11.40
2019-03-23T06:58:18.369Z,11.30
2019-03-23T07:00:46.354Z,11.20
2019-03-23T07:03:14.427Z,11.30
2019-03-23T07:05:42.445Z,11.30
2019-03-23T07:08:10.368Z,11.40
2019-03-23T07:10:39.225Z,11.30
2019-03-23T07:13:07.172Z,11.30
2019-03-23T07:15:35.217Z,11.30
2019-03-23T07:18:22.633Z,11.30
2019-03-23T07:20:51.769Z,11.30
2019-03-23T07:23:19.696Z,11.20
2019-03-23T07:25:47.773Z,11.20
2019-03-23T07:28:15.804Z,11.20
2019-03-23T07:30:44.868Z,11.20
2019-03-23T07:33:12.889Z,11.20
2019-03-23T07:35:40.850Z,11.20
2019-03-23T07:38:08.814Z,11.10
2019-03-23T07:40:36.714Z,11.10
2019-03-23T07:43:05.093Z,11.10
2019-03-23T07:45:33.025Z,11.10
2019-03-23T07:48:01.069Z,11.10
2019-03-23T07:50:29.068Z,11.10
2019-03-23T07:52:57.055Z,11.10
2019-03-23T07:55:25.093Z,11.10
2019-03-23T07:57:53.456Z,11.10
2019-03-23T08:00:21.878Z,11.10
2019-03-23T08:02:49.927Z,11.10
2019-03-23T08:05:17.995Z,11.10
2019-03-23T08:07:45.890Z,11.10
2019-03-23T08:10:30.308Z,11.10
2019-03-23T08:12:58.276Z,11.20
2019-03-23T08:15:26.352Z,11.20
2019-03-23T08:17:54.862Z,11.20
2019-03-23T08:20:22.866Z,11.30
2019-03-23T08:22:50.932Z,11.30
2019-03-23T08:25:19.058Z,11.30
2019-03-23T08:27:49.273Z,11.30
2019-03-23T08:30:17.262Z,11.40
2019-03-23T08:32:45.312Z,11.30
2019-03-23T08:35:13.376Z,11.40
2019-03-23T08:37:41.251Z,11.40
2019-03-23T08:40:09.278Z,11.40
2019-03-23T08:42:37.561Z,11.50
2019-03-23T08:45:05.838Z,11.50
2019-03-23T08:47:33.741Z,11.50
2019-03-23T08:50:01.749Z,11.50
2019-03-23T08:52:29.770Z,11.50
2019-03-23T08:54:57.698Z,11.60
2019-03-23T08:57:25.680Z,11.70
2019-03-23T08:59:53.676Z,11.60
2019-03-23T09:02:22.130Z,11.60
2019-03-23T09:04:50.048Z,11.70
2019-03-23T09:07:18.404Z,11.60
2019-03-23T09:09:46.580Z,11.70
2019-03-23T09:12:14.630Z,11.80
2019-03-23T09:14:42.525Z,11.80
2019-03-23T09:17:10.556Z,11.90
2019-03-23T09:19:38.538Z,11.90
2019-03-23T09:22:06.932Z,12.00
2019-03-23T09:24:34.934Z,12.00
2019-03-23T09:27:13.997Z,12.00
2019-03-23T09:29:43.261Z,12.10
2019-03-23T09:32:11.473Z,12.10
2019-03-23T09:34:39.485Z,12.10
2019-03-23T09:37:07.526Z,12.20
2019-03-23T09:39:35.580Z,12.30
2019-03-23T09:42:03.522Z,12.30
2019-03-23T09:44:31.464Z,12.30
2019-03-23T09:46:59.384Z,12.30
2019-03-23T09:49:27.493Z,12.40
2019-03-23T09:51:55.460Z,12.30
2019-03-23T09:54:23.521Z,12.30
2019-03-23T09:56:51.523Z,12.30
2019-03-23T09:59:19.466Z,12.20
2019-03-23T10:01:47.476Z,12.30
2019-03-23T10:04:15.502Z,12.30
2019-03-23T10:06:43.547Z,12.30
2019-03-23T10:09:11.445Z,12.30
2019-03-23T10:11:40.317Z,12.30
2019-03-23T10:14:09.293Z,12.40
2019-03-23T10:16:38.434Z,12.30
2019-03-23T10:19:06.487Z,12.40
2019-03-23T10:21:34.561Z,12.50
2019-03-23T10:24:02.725Z,12.40
2019-03-23T10:26:32.429Z,12.50
2019-03-23T10:29:00.463Z,12.60
2019-03-23T10:31:28.409Z,12.70
2019-03-23T10:33:56.411Z,12.80
2019-03-23T10:36:24.495Z,12.80
2019-03-23T10:38:52.529Z,12.70
2019-03-23T10:41:39.739Z,12.80
2019-03-23T10:44:07.748Z,12.80
2019-03-23T10:46:36.813Z,12.80
2019-03-23T10:49:04.950Z,12.80
2019-03-23T10:51:32.959Z,12.80
2019-03-23T10:54:04.122Z,12.80
2019-03-23T10:56:32.444Z,12.90
2019-03-23T10:59:14.151Z,13.00
2019-03-23T11:01:42.195Z,13.00
2019-03-23T11:04:10.351Z,13.10
2019-03-23T11:06:38.281Z,13.30
2019-03-23T11:09:07.113Z,13.40
2019-03-23T11:11:35.178Z,13.40
2019-03-23T11:14:03.096Z,13.50
2019-03-23T11:16:31.135Z,13.60
2019-03-23T11:18:59.294Z,13.80
2019-03-23T11:21:27.325Z,13.90
2019-03-23T11:23:55.372Z,13.90
2019-03-23T11:26:23.383Z,14.10
2019-03-23T11:28:51.417Z,14.30
2019-03-23T11:31:19.647Z,14.30
2019-03-23T11:33:47.624Z,14.20
2019-03-23T11:36:15.716Z,14.20
2019-03-23T11:38:43.803Z,14.10
2019-03-23T11:41:11.794Z,14.10
2019-03-23T11:43:39.814Z,14.30
2019-03-23T11:46:07.806Z,14.20
2019-03-23T11:48:35.854Z,14.30
2019-03-23T11:51:03.914Z,14.30
2019-03-23T11:53:32.009Z,14.40
2019-03-23T11:55:59.972Z,14.50
2019-03-23T11:58:28.532Z,14.60
2019-03-23T12:00:56.550Z,14.50
2019-03-23T12:03:26.366Z,14.50
2019-03-23T12:06:00.844Z,14.60
2019-03-23T12:08:30.732Z,14.60
2019-03-23T12:11:03.169Z,14.60
2019-03-23T12:13:28.847Z,14.70
2019-03-23T12:15:56.852Z,14.70
2019-03-23T12:18:24.918Z,14.50
2019-03-23T12:20:52.971Z,14.50
2019-03-23T12:23:20.976Z,14.50
2019-03-23T12:25:49.067Z,14.60
2019-03-23T12:28:17.090Z,14.50
2019-03-23T12:30:45.148Z,14.70
2019-03-23T12:33:13.165Z,14.80
2019-03-23T12:35:41.416Z,15.00
2019-03-23T12:38:09.472Z,15.10
2019-03-23T12:40:40.234Z,15.20
2019-03-23T12:43:08.663Z,15.10
2019-03-23T12:45:38.969Z,15.30
2019-03-23T12:48:10.645Z,15.30
2019-03-23T12:50:39.763Z,15.40
2019-03-23T12:53:07.854Z,15.40
2019-03-23T12:55:35.956Z,15.50
2019-03-23T12:58:08.524Z,15.80
2019-03-23T13:00:38.901Z,15.90
2019-03-23T13:03:07.630Z,16.00
2019-03-23T13:05:35.646Z,16.10
2019-03-23T13:08:03.663Z,16.00
2019-03-23T13:10:31.843Z,16.00
2019-03-23T13:13:01.032Z,16.00
2019-03-23T13:15:29.072Z,15.90
2019-03-23T13:17:57.067Z,16.00
2019-03-23T13:20:25.129Z,15.90
2019-03-23T13:22:53.180Z,15.90
2019-03-23T13:25:29.552Z,16.00
2019-03-23T13:27:58.426Z,15.90
2019-03-23T13:30:26.504Z,15.80
2019-03-23T13:32:54.440Z,15.90
2019-03-23T13:35:22.446Z,15.80
2019-03-23T13:37:50.919Z,15.70
2019-03-23T13:40:18.909Z,15.60
2019-03-23T13:42:46.837Z,15.60
2019-03-23T13:45:15.034Z,15.50
2019-03-23T13:47:46.112Z,15.40
2019-03-23T13:50:25.852Z,15.40
2019-03-23T13:52:53.982Z,15.50
2019-03-23T13:55:26.319Z,15.30
2019-03-23T13:58:08.548Z,15.20
2019-03-23T14:00:37.976Z,15.20
2019-03-23T14:03:08.682Z,15.10
2019-03-23T14:05:36.722Z,15.00
2019-03-23T14:08:04.945Z,14.90
2019-03-23T14:10:34.059Z,15.00
2019-03-23T14:13:02.310Z,14.80
2019-03-23T14:15:30.305Z,14.70
2019-03-23T14:17:58.450Z,14.60
2019-03-23T14:20:28.870Z,14.60
2019-03-23T14:23:02.590Z,14.60
2019-03-23T14:25:27.070Z,14.60
2019-03-23T14:27:58.293Z,14.50
2019-03-23T14:30:26.436Z,14.50
2019-03-23T14:32:56.693Z,14.40
2019-03-23T14:35:27.166Z,14.40
2019-03-23T14:37:56.021Z,14.30
2019-03-23T14:40:28.843Z,14.30
2019-03-23T14:42:56.920Z,14.20
2019-03-23T14:45:24.949Z,14.20
2019-03-23T14:47:53.821Z,14.10
2019-03-23T14:50:21.896Z,14.10
2019-03-23T14:52:49.920Z,14.10
2019-03-23T14:55:17.946Z,14.10
2019-03-23T14:57:45.897Z,14.00
2019-03-23T15:00:19.169Z,13.90
2019-03-23T15:02:47.257Z,13.90
2019-03-23T15:05:15.305Z,13.90
2019-03-23T15:07:43.315Z,13.70
2019-03-23T15:10:11.491Z,13.70
2019-03-23T15:12:39.533Z,13.50
2019-03-23T15:15:08.595Z,13.50
2019-03-23T15:17:36.577Z,13.40
2019-03-23T15:20:05.031Z,13.30
2019-03-23T15:22:32.948Z,13.30
2019-03-23T15:25:00.861Z,13.30
2019-03-23T15:27:29.010Z,13.20
2019-03-23T15:29:58.125Z,13.20
2019-03-23T15:32:26.079Z,13.20
2019-03-23T15:34:54.120Z,13.20
2019-03-23T15:37:22.129Z,13.10
2019-03-23T15:39:50.190Z,13.00
2019-03-23T15:42:24.722Z,13.00
2019-03-23T15:44:49.149Z,13.10
2019-03-23T15:47:17.174Z,13.10
2019-03-23T15:49:45.204Z,13.20
2019-03-23T15:52:13.280Z,13.10
2019-03-23T15:54:41.477Z,13.10
2019-03-23T15:57:09.775Z,13.10
2019-03-23T15:59:37.862Z,13.10
2019-03-23T16:02:05.941Z,13.20
2019-03-23T16:04:35.754Z,13.20
2019-03-23T16:07:06.233Z,13.20
2019-03-23T16:09:34.258Z,13.20
2019-03-23T16:12:04.865Z,13.20
2019-03-23T16:14:32.818Z,13.10
2019-03-23T16:17:00.863Z,13.10
2019-03-23T16:19:30.896Z,13.00
2019-03-23T16:21:59.048Z,13.00
2019-03-23T16:24:27.031Z,13.00
2019-03-23T16:26:55.164Z,13.00
2019-03-23T16:29:23.296Z,13.00
2019-03-23T16:31:52.736Z,13.10
2019-03-23T16:34:20.804Z,13.00
2019-03-23T16:36:50.857Z,13.00
2019-03-23T16:39:18.936Z,12.90
2019-03-23T16:41:46.992Z,13.00
2019-03-23T16:44:15.087Z,13.10
2019-03-23T16:46:43.053Z,13.10
2019-03-23T16:49:11.133Z,12.90
2019-03-23T16:51:39.149Z,12.90
2019-03-23T16:54:07.084Z,12.80
2019-03-23T16:56:36.389Z,12.80
2019-03-23T16:59:06.573Z,12.70
2019-03-23T17:01:34.617Z,12.60
2019-03-23T17:04:02.595Z,12.60
2019-03-23T17:06:30.564Z,12.60
2019-03-23T17:08:58.676Z,12.60
2019-03-23T17:11:26.805Z,12.50
2019-03-23T17:13:54.810Z,12.50
2019-03-23T17:16:22.922Z,12.40
2019-03-23T17:18:51.021Z,12.40
2019-03-23T17:21:18.991Z,12.40
2019-03-23T17:23:47.096Z,12.50
2019-03-23T17:26:15.052Z,12.50
2019-03-23T17:28:43.109Z,12.50
2019-03-23T17:31:10.990Z,12.50
2019-03-23T17:33:39.082Z,12.50
2019-03-23T17:36:07.094Z,12.40
2019-03-23T17:38:35.071Z,12.40
2019-03-23T17:41:05.503Z,12.50
2019-03-23T17:43:33.803Z,12.40
2019-03-23T17:46:01.813Z,12.40
2019-03-23T17:48:29.814Z,12.50
2019-03-23T17:50:57.738Z,12.40
2019-03-23T17:53:25.615Z,12.40
2019-03-23T17:55:53.673Z,12.30
2019-03-23T17:58:21.670Z,12.40
2019-03-23T18:00:49.664Z,12.30
2019-03-23T18:03:17.648Z,12.40
2019-03-23T18:05:46.091Z,12.30
2019-03-23T18:08:14.087Z,12.30
2019-03-23T18:10:43.373Z,12.20
2019-03-23T18:13:16.542Z,12.20
2019-03-23T18:15:41.145Z,12.10
2019-03-23T18:18:09.196Z,12.00
2019-03-23T18:20:37.189Z,12.00
2019-03-23T18:23:29.535Z,12.10
2019-03-23T18:25:59.566Z,12.00
2019-03-23T18:28:27.529Z,12.00
2019-03-23T18:30:55.539Z,11.90
2019-03-23T18:33:23.566Z,11.90
2019-03-23T18:35:51.542Z,11.90
2019-03-23T18:41:15.877Z,11.90
2019-03-23T18:44:03.693Z,11.80
2019-03-23T18:49:15.286Z,11.90
2019-03-23T18:51:43.459Z,11.80
2019-03-23T18:54:11.545Z,11.80
2019-03-23T18:56:39.614Z,11.80
2019-03-23T18:59:07.631Z,11.80
2019-03-23T19:01:35.611Z,11.80
2019-03-23T19:04:03.947Z,11.80
2019-03-23T19:09:07.737Z,11.80
2019-03-23T19:11:36.043Z,11.70
2019-03-23T19:14:04.949Z,11.70
2019-03-23T19:16:33.039Z,11.60
2019-03-23T19:19:00.934Z,11.60
2019-03-23T19:21:28.955Z,11.60
2019-03-23T19:23:58.022Z,11.60
2019-03-23T19:26:28.103Z,11.60
2019-03-23T19:28:56.058Z,11.50
2019-03-23T19:31:24.083Z,11.50
2019-03-23T19:33:52.084Z,11.40
2019-03-23T19:36:20.064Z,11.50
2019-03-23T19:38:48.124Z,11.50
2019-03-23T19:41:16.210Z,11.40
2019-03-23T19:43:48.922Z,11.40
2019-03-23T19:46:13.936Z,11.40
2019-03-23T19:48:41.847Z,11.30
2019-03-23T19:51:09.776Z,11.30
2019-03-23T19:53:37.746Z,11.30
2019-03-23T19:56:05.754Z,11.30
2019-03-23T19:58:33.655Z,11.20
2019-03-23T20:01:01.686Z,11.30
2019-03-23T20:06:05.006Z,11.20
2019-03-23T20:08:33.147Z,11.10
2019-03-23T20:11:01.164Z,11.10
2019-03-23T20:13:29.271Z,11.10
2019-03-23T20:15:57.286Z,11.10
2019-03-23T20:18:25.386Z,11.10
2019-03-23T20:20:54.326Z,11.10
2019-03-23T20:23:23.259Z,11.00
2019-03-23T20:25:51.266Z,10.90
2019-03-23T20:28:19.307Z,11.00
2019-03-23T20:30:47.240Z,11.00
2019-03-23T20:33:19.694Z,11.00
2019-03-23T20:35:45.800Z,11.00
2019-03-23T20:38:13.803Z,10.90
2019-03-23T20:40:42.757Z,10.90
2019-03-23T20:43:10.658Z,10.90
2019-03-23T20:45:38.662Z,10.90
2019-03-23T20:48:07.452Z,10.90
2019-03-23T20:50:35.688Z,10.90
2019-03-23T20:53:03.706Z,10.80
2019-03-23T20:55:31.799Z,10.80
2019-03-23T20:57:59.802Z,10.80
2019-03-23T21:00:27.792Z,10.80
2019-03-23T21:02:55.806Z,10.80
2019-03-23T21:05:33.083Z,10.80
2019-03-23T21:07:53.744Z,10.80
2019-03-23T21:10:21.678Z,10.80
2019-03-23T21:12:49.800Z,10.80
2019-03-23T21:15:17.774Z,10.80
2019-03-23T21:17:51.137Z,10.80
2019-03-23T21:20:15.639Z,10.80
2019-03-23T21:22:43.668Z,10.70
2019-03-23T21:25:11.848Z,10.70
2019-03-23T21:27:39.886Z,10.60
2019-03-23T21:30:10.525Z,10.50
2019-03-23T21:32:38.522Z,10.50
2019-03-23T21:35:06.470Z,10.50
2019-03-23T21:37:34.443Z,10.50
2019-03-23T21:40:02.505Z,10.50
2019-03-23T21:42:30.407Z,10.50
2019-03-23T21:44:58.278Z,10.50
2019-03-23T21:47:26.257Z,10.50
2019-03-23T21:49:54.279Z,10.40
2019-03-23T21:52:22.263Z,10.40
2019-03-23T21:54:50.264Z,10.40
2019-03-23T21:57:18.350Z,10.40
2019-03-23T21:59:46.368Z,10.40
2019-03-23T22:02:14.362Z,10.40
2019-03-23T22:04:42.413Z,10.30
2019-03-23T22:07:10.417Z,10.30
2019-03-23T22:09:38.395Z,10.20
2019-03-23T22:12:06.676Z,10.30
2019-03-23T22:14:41.497Z,10.30
2019-03-23T22:17:05.880Z,10.20
2019-03-23T22:19:35.885Z,10.20
2019-03-23T22:22:03.880Z,10.20
2019-03-23T22:24:31.856Z,10.20
2019-03-23T22:26:59.866Z,10.20
2019-03-23T22:29:27.854Z,10.10
2019-03-23T22:31:55.743Z,10.10
2019-03-23T22:34:23.640Z,10.10
2019-03-23T22:36:51.540Z,10.00
2019-03-23T22:39:19.709Z,9.90
2019-03-23T22:41:47.619Z,10.00
2019-03-23T22:44:15.577Z,9.90
2019-03-23T22:46:43.548Z,9.90
2019-03-23T22:49:11.582Z,10.00
2019-03-23T22:51:41.419Z,10.00
2019-03-23T22:54:09.375Z,10.00
2019-03-23T22:56:37.369Z,9.90
2019-03-23T22:59:05.431Z,9.90
2019-03-23T23:01:33.463Z,9.90
2019-03-23T23:04:01.465Z,9.90
2019-03-23T23:06:29.351Z,9.90
2019-03-23T23:08:57.253Z,9.90
2019-03-23T23:11:25.298Z,9.90
2019-03-23T23:13:53.475Z,9.90
2019-03-23T23:16:21.361Z,9.90
2019-03-23T23:18:52.231Z,9.90
2019-03-23T23:21:20.102Z,9.90
2019-03-23T23:23:48.105Z,9.90
2019-03-23T23:26:16.077Z,9.90
2019-03-23T23:28:44.046Z,9.90
2019-03-23T23:31:11.941Z,9.90
2019-03-23T23:33:39.957Z,9.90
2019-03-23T23:36:07.941Z,9.90
2019-03-23T23:38:35.853Z,9.90
2019-03-23T23:41:03.888Z,9.90
2019-03-23T23:43:31.810Z,9.90
2019-03-23T23:45:59.789Z,9.90
2019-03-23T23:48:27.819Z,9.90
2019-03-23T23:50:55.813Z,9.90
2019-03-23T23:53:23.835Z,10.00
2019-03-23T23:55:51.873Z,9.90
2019-03-23T23:58:19.859Z,9.90
